Latest Weather Observations for Rottnest Island

IDW60901

Issued at 8:51 pm WST Sunday 30 April 2017 (issued every 10 minutes, with the page automatically refreshed every 10 minutes)

About weather observations | Map of Perth area stations | Latest observations for Perth area | Other Formats
Station Details ID: 009193 Name: ROTTNEST ISLAND Lat: -32.01 Lon: 115.50 Height: 43.1 m
Data from the previous 72 hours. | See also: Recent months at Rottnest Island
Date/Time
WST
Temp
°C
App
Temp
°C
Dew
Point
°C
Rel
Hum
%
Delta-T
°C
Wind Press
QNH
hPa
Press
MSL
hPa
Rain since
9am
mm
Dir  Spd
km/h
Gust
km/h
Spd
kts
Gust
kts
30/08:30pm 18.9 13.4 14.8 77 2.4 S 37 46 20 25 1022.3 1022.2 0.0
30/08:00pm 18.9 13.1 15.0 78 2.3 S 39 46 21 25 1022.1 1022.0 0.0
30/07:30pm 18.8 13.1 15.3 80 2.1 S 39 48 21 26 1022.1 1022.0 0.0
30/07:00pm 18.8 13.5 15.3 80 2.1 S 37 48 20 26 1022.1 1022.0 0.0
30/06:30pm 18.5 12.4 15.2 81 1.9 S 41 54 22 29 1021.8 1021.7 0.0
30/06:00pm 18.5 12.9 15.4 82 1.8 S 39 50 21 27 1021.4 1021.3 0.0
30/05:30pm 18.7 13.2 15.8 83 1.7 S 39 48 21 26 1021.0 1020.9 0.0
30/05:00pm 19.6 15.5 16.4 82 1.9 S 33 43 18 23 1020.9 1020.8 0.0
30/04:30pm 20.3 16.5 15.7 75 2.7 S 30 37 16 20 1020.8 1020.7 0.0
30/04:00pm 20.6 17.2 15.8 74 2.9 SSW 28 35 15 19 1020.7 1020.6 0.0
30/03:30pm 20.7 17.0 16.1 75 2.8 S 30 35 16 19 1020.8 1020.7 0.0
30/03:00pm 21.5 18.4 15.6 69 3.5 S 26 32 14 17 1020.8 1020.7 0.0
30/02:30pm 21.0 18.4 16.0 73 3.0 S 24 30 13 16 1021.0 1020.9 0.0
30/02:00pm 21.2 19.0 16.0 72 3.1 S 22 26 12 14 1021.0 1020.9 0.0
30/01:30pm 21.3 19.0 15.6 70 3.4 S 22 26 12 14 1021.0 1020.9 0.0
30/01:00pm 21.0 19.0 15.5 71 3.3 S 20 28 11 15 1021.2 1021.1 0.0
30/12:30pm 21.3 20.2 16.3 73 3.0 SSE 17 20 9 11 1021.5 1021.4 0.0
30/12:00pm 20.9 20.0 15.9 73 3.0 SSE 15 20 8 11 1021.9 1021.8 0.0
30/11:30am 20.1 18.9 15.1 73 2.9 SSE 15 19 8 10 1022.3 1022.2 0.0
30/11:00am 20.1 19.0 15.3 74 2.8 SE 15 19 8 10 1022.3 1022.2 0.0
30/10:30am 20.1 19.1 15.5 75 2.7 SE 15 19 8 10 1022.5 1022.4 0.0
30/10:00am 19.9 19.2 15.5 76 2.6 SE 13 17 7 9 1022.4 1022.3 0.0
30/09:30am 19.2 18.2 15.5 79 2.2 SE 15 19 8 10 1022.5 1022.4 0.0
30/09:00am 19.0 17.8 16.0 83 1.8 SSE 17 20 9 11 1022.6 1022.5 0.0
30/08:30am 18.2 16.2 15.6 85 1.5 SSE 20 28 11 15 1022.5 1022.4 0.0
30/08:00am 18.3 16.2 16.3 88 1.2 SSE 22 30 12 16 1022.2 1022.1 0.0
30/07:30am 18.1 15.7 16.3 89 1.1 SSE 24 28 13 15 1021.8 1021.7 0.0
30/07:00am 18.4 17.4 16.7 90 1.0 SSE 17 20 9 11 1021.5 1021.4 0.0
30/06:30am 18.3 17.3 16.6 90 1.0 SSE 17 20 9 11 1021.3 1021.2 0.0
30/06:00am 18.4 16.5 16.6 89 1.1 S 22 28 12 15 1021.3 1021.2 0.0
30/05:30am 18.3 16.3 16.5 89 1.1 S 22 24 12 13 1021.1 1021.0 0.0
30/05:00am 18.1 16.4 16.3 89 1.1 S 20 24 11 13 1021.0 1020.9 0.0
30/04:30am 18.1 16.4 16.3 89 1.1 S 20 28 11 15 1021.0 1020.9 0.0
30/04:00am 18.5 17.1 17.0 91 0.9 S 20 28 11 15 1021.0 1020.9 0.0
30/03:30am 17.8 17.0 16.0 89 1.1 SSE 15 19 8 10 1020.9 1020.8 0.0
30/03:00am 17.6 17.3 15.4 87 1.3 SE 11 13 6 7 1021.0 1020.9 0.0
30/02:30am 17.8 17.2 15.6 87 1.3 ESE 13 17 7 9 1021.1 1021.0 0.0
30/02:00am 18.7 17.7 16.5 87 1.3 SE 17 24 9 13 1021.1 1021.0 0.0
30/01:30am 18.6 17.4 16.2 86 1.4 SSE 17 22 9 12 1021.2 1021.1 0.0
30/01:00am 18.7 16.6 16.1 85 1.5 SSE 22 26 12 14 1021.2 1021.1 0.0
30/12:30am 18.6 16.2 15.5 82 1.8 SSE 22 26 12 14 1021.5 1021.4 0.0
30/12:00am 18.2 16.3 15.1 82 1.8 SSE 19 22 10 12 1021.6 1021.5 0.0
 
Date/Time
WST
Temp
°C
App
Temp
°C
Dew
Point
°C
Rel
Hum
%
Delta-T
°C
Wind Press
QNH
hPa
Press
MSL
hPa
Rain since
9am
mm
Dir  Spd
km/h
Gust
km/h
Spd
kts
Gust
kts
29/11:30pm 18.3 16.7 15.0 81 1.9 SSE 17 20 9 11 1021.8 1021.7 0.0
29/11:00pm 18.5 17.7 15.0 80 2.0 SE 13 17 7 9 1021.7 1021.6 0.0
29/10:30pm 19.2 18.3 14.9 76 2.5 SE 13 17 7 9 1021.7 1021.6 0.0
29/10:00pm 19.7 17.5 14.5 72 3.0 SSE 19 24 10 13 1021.8 1021.7 0.0
29/09:30pm 19.9 16.8 14.5 71 3.1 SSE 24 30 13 16 1021.7 1021.6 0.0
29/09:00pm 19.9 15.9 14.0 69 3.4 S 28 32 15 17 1021.8 1021.7 0.0
29/08:30pm 20.0 16.3 13.9 68 3.5 S 26 32 14 17 1021.7 1021.6 0.0
29/08:00pm 19.8 16.2 13.0 65 3.8 S 24 32 13 17 1021.6 1021.5 0.0
29/07:30pm 20.3 16.5 12.5 61 4.4 SSW 24 30 13 16 1021.5 1021.4 0.0
29/07:00pm 20.1 16.5 11.8 59 4.6 SSW 22 28 12 15 1021.6 1021.5 0.0
29/06:30pm 20.0 17.0 12.5 62 4.2 SSW 20 24 11 13 1021.2 1021.1 0.0
29/06:00pm 20.0 17.1 13.0 64 4.0 SW 20 24 11 13 1021.0 1020.9 0.0
29/05:30pm 20.0 17.2 12.5 62 4.2 SW 19 22 10 12 1020.8 1020.7 0.0
29/05:00pm 20.6 18.2 12.6 60 4.5 SW 17 20 9 11 1020.9 1020.8 0.0
29/04:30pm 21.4 18.0 11.4 53 5.6 SW 20 24 11 13 1021.2 1021.1 0.0
29/04:00pm 22.0 18.4 10.5 48 6.3 SW 20 24 11 13 1021.4 1021.3 0.0
29/03:30pm 22.0 18.6 9.2 44 6.9 SW 17 20 9 11 1021.4 1021.3 0.0
29/03:00pm 22.8 20.9 8.9 41 7.4 SW 9 19 5 10 1021.3 1021.2 0.0
29/02:30pm 23.2 20.3 8.1 38 8.0 SW 13 17 7 9 1021.4 1021.3 0.0
29/02:00pm 23.8 21.0 5.2 30 9.3 NW 9 13 5 7 1021.6 1021.5 0.0
29/01:30pm 23.4 20.5 4.9 30 9.2 NNW 9 13 5 7 1021.8 1021.7 0.0
29/01:00pm 23.7 20.6 5.6 31 9.1 NNW 11 15 6 8 1022.1 1022.0 0.0
29/12:30pm 23.5 20.8 7.2 35 8.5 NNE 11 17 6 9 1022.6 1022.5 0.0
29/12:00pm 23.3 20.7 7.8 37 8.1 NE 11 17 6 9 1023.1 1023.0 0.0
29/11:30am 23.1 20.0 7.2 36 8.3 NE 13 19 7 10 1023.4 1023.3 0.0
29/11:00am 21.5 18.2 6.6 38 7.5 NE 13 17 7 9 1023.6 1023.5 0.0
29/10:30am 21.2 18.1 7.4 41 7.1 NE 13 17 7 9 1023.8 1023.7 0.0
29/10:00am 20.2 16.7 7.2 43 6.6 ENE 15 20 8 11 1023.9 1023.8 0.0
29/09:30am 19.7 15.9 7.4 45 6.3 NE 17 24 9 13 1023.8 1023.7 0.0
29/09:00am 18.8 14.6 7.6 48 5.7 NE 19 24 10 13 1023.8 1023.7 0.0
29/08:30am 18.3 14.8 8.8 54 4.9 ENE 17 20 9 11 1023.8 1023.7 0.0
29/08:00am 17.6 13.3 7.1 50 5.2 ENE 19 26 10 14 1023.8 1023.7 0.0
29/07:30am 17.1 13.3 7.5 53 4.8 ENE 17 20 9 11 1023.7 1023.6 0.0
29/07:00am 16.7 12.9 7.4 54 4.6 ENE 17 20 9 11 1023.5 1023.4 0.0
29/06:30am 16.4 13.1 8.1 58 4.2 E 15 17 8 9 1023.5 1023.4 0.0
29/06:00am 17.0 13.7 7.9 55 4.6 E 15 19 8 10 1023.6 1023.5 0.0
29/05:30am 17.3 14.2 9.0 58 4.3 ESE 15 19 8 10 1023.6 1023.5 0.0
29/05:00am 17.6 14.3 9.5 59 4.2 ESE 17 20 9 11 1023.4 1023.3 0.0
29/04:30am 18.0 15.2 9.9 59 4.3 ESE 15 19 8 10 1023.2 1023.1 0.0
29/04:00am 18.1 14.7 9.2 56 4.6 ESE 17 19 9 10 1023.2 1023.1 0.0
29/03:30am 17.9 15.3 10.8 63 3.8 SE 15 17 8 9 1023.3 1023.2 0.0
29/03:00am 17.9 15.8 12.4 70 3.0 ESE 15 17 8 9 1023.3 1023.2 0.0
29/02:30am 18.1 17.0 13.0 72 2.9 ESE 11 15 6 8 1023.3 1023.2 0.0
29/02:00am 18.3 16.3 12.7 70 3.1 SE 15 17 8 9 1023.3 1023.2 0.0
29/01:30am 18.7 16.8 12.9 69 3.3 SE 15 17 8 9 1023.4 1023.3 0.0
29/01:00am 19.1 16.7 12.6 66 3.6 SSE 17 19 9 10 1023.6 1023.5 0.0
29/12:30am 19.2 17.0 13.4 69 3.3 SSE 17 20 9 11 1023.5 1023.4 0.0
29/12:00am 19.3 17.3 12.8 66 3.6 S 15 19 8 10 1023.6 1023.5 0.0
 
Date/Time
WST
Temp
°C
App
Temp
°C
Dew
Point
°C
Rel
Hum
%
Delta-T
°C
Wind Press
QNH
hPa
Press
MSL
hPa
Rain since
9am
mm
Dir  Spd
km/h
Gust
km/h
Spd
kts
Gust
kts
28/11:30pm 19.1 16.8 11.9 63 4.0 S 15 19 8 10 1023.9 1023.8 0.0
28/11:00pm 19.4 17.0 11.4 60 4.4 SSE 15 20 8 11 1024.2 1024.1 0.0
28/10:30pm 19.8 17.1 11.6 59 4.5 SSE 17 22 9 12 1024.5 1024.4 0.0
28/10:00pm 20.1 16.9 11.1 56 4.9 SE 19 24 10 13 1024.6 1024.5 0.0
28/09:30pm 20.0 17.5 12.3 61 4.3 SSE 17 20 9 11 1024.5 1024.4 0.0
28/09:00pm 19.4 16.9 13.6 69 3.3 SSE 19 24 10 13 1024.5 1024.4 0.0
28/08:30pm 19.4 17.2 14.4 73 2.9 SSE 19 24 10 13 1024.5 1024.4 0.0
28/08:00pm 19.7 17.3 14.5 72 3.0 SSE 20 24 11 13 1024.4 1024.3 0.0
28/07:30pm 19.6 17.3 14.6 73 2.9 SSE 20 24 11 13 1024.1 1024.0 0.0
28/07:00pm 19.4 16.7 14.6 74 2.8 SSE 22 26 12 14 1023.8 1023.7 0.0
28/06:30pm 19.6 16.7 15.0 75 2.7 S 24 28 13 15 1023.6 1023.5 0.0
28/06:00pm 19.7 17.0 14.7 73 2.9 S 22 28 12 15 1023.5 1023.4 0.0
28/05:30pm 19.9 17.6 14.7 72 3.0 SSW 20 28 11 15 1023.2 1023.1 0.0
28/05:00pm 20.4 17.7 14.5 69 3.4 SSW 22 28 12 15 1023.1 1023.0 0.0
28/04:30pm 20.8 17.3 13.5 63 4.2 SSW 24 30 13 16 1023.2 1023.1 0.0
28/04:00pm 21.2 17.6 12.9 59 4.7 SSW 24 32 13 17 1023.3 1023.2 0.0
28/03:30pm 21.3 17.9 12.4 57 5.0 SSW 22 26 12 14 1023.3 1023.2 0.0
28/03:00pm 21.4 18.6 13.3 60 4.6 SSW 20 24 11 13 1023.2 1023.1 0.0
28/02:30pm 21.7 18.8 12.8 57 5.1 SSW 20 24 11 13 1023.1 1023.0 0.0
28/02:00pm 21.6 18.8 11.3 52 5.7 SSW 17 20 9 11 1023.3 1023.2 0.0
28/01:30pm 21.7 18.8 11.1 51 5.9 S 17 20 9 11 1023.6 1023.5 0.0
28/01:00pm 21.6 19.1 11.0 51 5.8 S 15 20 8 11 1024.0 1023.9 0.0
28/12:30pm 22.2 20.0 10.7 48 6.3 S 13 17 7 9 1024.5 1024.4 0.0
28/12:00pm 23.0 21.1 9.0 41 7.5 NNE 9 13 5 7 1025.0 1024.9 0.0
28/11:30am 22.7 20.4 9.1 42 7.3 NNE 11 15 6 8 1025.4 1025.3 0.0
28/11:00am 22.0 19.7 8.9 43 6.9 NNE 11 17 6 9 1025.6 1025.5 0.0
28/10:30am 22.0 19.4 9.5 45 6.7 NE 13 19 7 10 1025.8 1025.7 0.0
28/10:00am 21.0 17.9 8.9 46 6.4 NE 15 20 8 11 1025.9 1025.8 0.0
28/09:30am 20.6 17.5 10.4 52 5.5 NE 17 24 9 13 1026.0 1025.9 0.0
28/09:00am 19.6 16.2 10.6 56 4.9 NE 19 24 10 13 1025.9 1025.8 0.0
28/08:30am 18.7 15.7 10.5 59 4.4 NNE 17 20 9 11 1025.7 1025.6 0.0
28/08:00am 17.6 14.6 10.5 63 3.8 NE 17 20 9 11 1025.7 1025.6 0.0
28/07:30am 17.0 14.0 10.6 66 3.4 NE 17 20 9 11 1025.4 1025.3 0.0
28/07:00am 16.7 13.9 11.4 71 2.9 NE 17 19 9 10 1025.1 1025.0 0.0
28/06:30am 16.1 13.9 10.8 71 2.8 E 13 15 7 8 1025.0 1024.9 0.0
28/06:00am 16.3 14.2 11.2 72 2.7 E 13 13 7 7 1025.0 1024.9 0.0
28/05:30am 17.3 15.4 11.8 70 3.0 SE 13 15 7 8 1025.0 1024.9 0.0
28/05:00am 17.3 15.8 12.0 71 2.9 SE 11 13 6 7 1024.8 1024.7 0.0
28/04:30am 17.2 15.3 11.7 70 3.0 ESE 13 17 7 9 1024.6 1024.5 0.0
28/04:00am 17.3 14.6 11.8 70 3.0 SE 17 19 9 10 1024.3 1024.2 0.0
28/03:30am 17.8 15.1 11.6 67 3.4 SE 17 20 9 11 1024.3 1024.2 0.0
28/03:00am 17.9 15.2 11.7 67 3.4 SE 17 20 9 11 1024.4 1024.3 0.0
28/02:30am 17.8 15.1 11.6 67 3.4 SE 17 22 9 12 1024.5 1024.4 0.0
28/02:00am 18.3 15.9 12.5 69 3.2 SSE 17 20 9 11 1024.5 1024.4 0.0
28/01:30am 18.4 16.7 13.7 74 2.7 SSE 15 20 8 11 1024.6 1024.5 0.0
28/01:00am 18.3 16.2 14.6 79 2.1 SSE 19 24 10 13 1024.5 1024.4 0.0
28/12:30am 18.2 16.2 14.9 81 1.9 SE 19 26 10 14 1024.7 1024.6 0.0
28/12:00am 19.2 17.5 15.7 80 2.1 SSE 19 24 10 13 1024.9 1024.8 0.0
 
Date/Time
WST
Temp
°C
App
Temp
°C
Dew
Point
°C
Rel
Hum
%
Delta-T
°C
Wind Press
QNH
hPa
Press
MSL
hPa
Rain since
9am
mm
Dir  Spd
km/h
Gust
km/h
Spd
kts
Gust
kts
27/11:30pm 19.5 17.2 15.8 79 2.2 SSE 22 28 12 15 1024.8 1024.7 0.0
27/11:00pm 19.8 16.2 15.2 75 2.7 SSE 28 33 15 18 1024.9 1024.8 0.0
27/10:30pm 19.7 15.8 14.5 72 3.0 SSE 28 33 15 18 1024.9 1024.8 0.0
27/10:00pm 19.4 15.0 15.1 76 2.5 S 32 37 17 20 1024.8 1024.7 0.0
27/09:30pm 19.7 15.2 14.9 74 2.8 S 32 39 17 21 1024.9 1024.8 0.0
27/09:00pm 19.7 15.2 14.9 74 2.8 S 32 39 17 21 1024.8 1024.7 0.0

Latest Capital City Observations: Canberra | Sydney | Melbourne | Brisbane | Adelaide | Perth | Hobart | Darwin

Other Formats:

Comma delimited format used in spreadsheet applications
http://www.bom.gov.au/fwo/IDW60901/IDW60901.94602.axf

JavaScript Object Notation format (JSON) in row-major order
http://www.bom.gov.au/fwo/IDW60901/IDW60901.94602.json